sensor_id;sensor_type;location;lat;lon;timestamp;P1;durP1;ratioP1;P2;durP2;ratioP2
12814;SDS011;6472;52.328;13.070;2022-09-09T00:01:15;6.10;;;3.30;;
12814;SDS011;6472;52.328;13.070;2022-09-09T00:03:57;5.17;;;3.93;;
12814;SDS011;6472;52.328;13.070;2022-09-09T00:06:30;4.37;;;3.73;;
12814;SDS011;6472;52.328;13.070;2022-09-09T00:09:02;5.83;;;3.63;;
12814;SDS011;6472;52.328;13.070;2022-09-09T00:11:35;4.07;;;3.67;;
12814;SDS011;6472;52.328;13.070;2022-09-09T00:14:12;7.20;;;3.33;;
12814;SDS011;6472;52.328;13.070;2022-09-09T00:16:49;4.30;;;3.33;;
12814;SDS011;6472;52.328;13.070;2022-09-09T00:19:23;5.57;;;4.00;;
12814;SDS011;6472;52.328;13.070;2022-09-09T00:22:00;4.27;;;3.43;;
12814;SDS011;6472;52.328;13.070;2022-09-09T00:24:41;4.40;;;3.47;;
12814;SDS011;6472;52.328;13.070;2022-09-09T00:27:16;2.93;;;2.73;;
12814;SDS011;6472;52.328;13.070;2022-09-09T00:29:51;4.00;;;3.43;;
12814;SDS011;6472;52.328;13.070;2022-09-09T00:32:24;4.80;;;3.67;;
12814;SDS011;6472;52.328;13.070;2022-09-09T00:34:59;4.37;;;3.27;;
12814;SDS011;6472;52.328;13.070;2022-09-09T00:37:31;4.63;;;3.47;;
12814;SDS011;6472;52.328;13.070;2022-09-09T00:40:02;5.83;;;3.20;;
12814;SDS011;6472;52.328;13.070;2022-09-09T00:42:42;4.23;;;3.70;;
12814;SDS011;6472;52.328;13.070;2022-09-09T00:45:17;4.33;;;3.50;;
12814;SDS011;6472;52.328;13.070;2022-09-09T00:47:59;3.83;;;3.33;;
12814;SDS011;6472;52.328;13.070;2022-09-09T00:50:35;4.47;;;3.57;;
12814;SDS011;6472;52.328;13.070;2022-09-09T00:53:17;4.20;;;3.23;;
12814;SDS011;6472;52.328;13.070;2022-09-09T00:55:58;5.20;;;4.10;;
12814;SDS011;6472;52.328;13.070;2022-09-09T00:58:32;5.67;;;3.90;;
12814;SDS011;6472;52.328;13.070;2022-09-09T01:01:02;4.03;;;3.13;;
12814;SDS011;6472;52.328;13.070;2022-09-09T01:03:35;4.37;;;3.40;;
12814;SDS011;6472;52.328;13.070;2022-09-09T01:06:12;5.90;;;3.87;;
12814;SDS011;6472;52.328;13.070;2022-09-09T01:08:49;4.10;;;3.70;;
12814;SDS011;6472;52.328;13.070;2022-09-09T01:11:32;3.47;;;3.00;;
12814;SDS011;6472;52.328;13.070;2022-09-09T01:14:10;4.50;;;3.33;;
12814;SDS011;6472;52.328;13.070;2022-09-09T01:16:45;5.07;;;3.93;;
12814;SDS011;6472;52.328;13.070;2022-09-09T01:19:18;4.40;;;3.57;;
12814;SDS011;6472;52.328;13.070;2022-09-09T01:21:54;3.20;;;2.90;;
12814;SDS011;6472;52.328;13.070;2022-09-09T01:24:31;5.50;;;4.10;;
12814;SDS011;6472;52.328;13.070;2022-09-09T01:27:09;4.50;;;3.70;;
12814;SDS011;6472;52.328;13.070;2022-09-09T01:29:39;5.03;;;3.67;;
12814;SDS011;6472;52.328;13.070;2022-09-09T01:35:07;7.23;;;3.63;;
12814;SDS011;6472;52.328;13.070;2022-09-09T01:37:40;4.33;;;3.47;;
12814;SDS011;6472;52.328;13.070;2022-09-09T01:40:08;7.00;;;3.73;;
12814;SDS011;6472;52.328;13.070;2022-09-09T01:42:37;5.13;;;3.60;;
12814;SDS011;6472;52.328;13.070;2022-09-09T01:45:06;4.60;;;3.80;;
12814;SDS011;6472;52.328;13.070;2022-09-09T01:47:35;3.20;;;2.87;;
12814;SDS011;6472;52.328;13.070;2022-09-09T01:50:03;4.17;;;3.30;;
12814;SDS011;6472;52.328;13.070;2022-09-09T01:52:32;4.57;;;3.13;;
12814;SDS011;6472;52.328;13.070;2022-09-09T01:55:03;3.60;;;3.30;;
12814;SDS011;6472;52.328;13.070;2022-09-09T01:57:33;7.10;;;3.47;;
12814;SDS011;6472;52.328;13.070;2022-09-09T02:00:08;4.30;;;3.50;;
12814;SDS011;6472;52.328;13.070;2022-09-09T02:02:39;4.20;;;3.37;;
12814;SDS011;6472;52.328;13.070;2022-09-09T02:05:17;3.93;;;3.53;;
12814;SDS011;6472;52.328;13.070;2022-09-09T02:07:55;3.87;;;3.10;;
12814;SDS011;6472;52.328;13.070;2022-09-09T02:10:33;3.67;;;3.33;;
12814;SDS011;6472;52.328;13.070;2022-09-09T02:13:10;6.07;;;3.77;;
12814;SDS011;6472;52.328;13.070;2022-09-09T02:15:42;3.37;;;2.70;;
12814;SDS011;6472;52.328;13.070;2022-09-09T02:18:14;4.20;;;3.30;;
12814;SDS011;6472;52.328;13.070;2022-09-09T02:20:49;4.33;;;3.67;;
12814;SDS011;6472;52.328;13.070;2022-09-09T02:23:18;4.47;;;3.30;;
12814;SDS011;6472;52.328;13.070;2022-09-09T02:25:48;4.67;;;3.67;;
12814;SDS011;6472;52.328;13.070;2022-09-09T02:28:19;6.50;;;3.60;;
12814;SDS011;6472;52.328;13.070;2022-09-09T02:30:51;4.53;;;3.60;;
12814;SDS011;6472;52.328;13.070;2022-09-09T02:33:21;4.87;;;3.83;;
12814;SDS011;6472;52.328;13.070;2022-09-09T02:35:51;3.33;;;3.03;;
12814;SDS011;6472;52.328;13.070;2022-09-09T02:38:23;5.10;;;3.70;;
12814;SDS011;6472;52.328;13.070;2022-09-09T02:40:55;4.20;;;3.63;;
12814;SDS011;6472;52.328;13.070;2022-09-09T02:43:24;4.30;;;3.83;;
12814;SDS011;6472;52.328;13.070;2022-09-09T02:45:56;4.23;;;3.17;;
12814;SDS011;6472;52.328;13.070;2022-09-09T02:48:32;5.10;;;3.97;;
12814;SDS011;6472;52.328;13.070;2022-09-09T02:51:08;4.40;;;3.60;;
12814;SDS011;6472;52.328;13.070;2022-09-09T02:53:43;3.90;;;3.03;;
12814;SDS011;6472;52.328;13.070;2022-09-09T02:56:16;3.80;;;3.40;;
12814;SDS011;6472;52.328;13.070;2022-09-09T02:58:45;5.20;;;3.80;;
12814;SDS011;6472;52.328;13.070;2022-09-09T03:01:16;3.90;;;3.07;;
12814;SDS011;6472;52.328;13.070;2022-09-09T03:03:45;4.37;;;3.57;;
12814;SDS011;6472;52.328;13.070;2022-09-09T03:06:13;3.73;;;3.40;;
12814;SDS011;6472;52.328;13.070;2022-09-09T03:08:41;4.70;;;3.07;;
12814;SDS011;6472;52.328;13.070;2022-09-09T03:11:14;4.73;;;4.10;;
12814;SDS011;6472;52.328;13.070;2022-09-09T03:13:42;4.63;;;3.23;;
12814;SDS011;6472;52.328;13.070;2022-09-09T03:16:10;4.30;;;3.47;;
12814;SDS011;6472;52.328;13.070;2022-09-09T03:18:40;4.47;;;3.50;;
12814;SDS011;6472;52.328;13.070;2022-09-09T03:21:08;6.43;;;3.63;;
12814;SDS011;6472;52.328;13.070;2022-09-09T03:23:37;4.07;;;3.53;;
12814;SDS011;6472;52.328;13.070;2022-09-09T03:26:05;4.77;;;3.83;;
12814;SDS011;6472;52.328;13.070;2022-09-09T03:28:33;4.17;;;3.00;;
12814;SDS011;6472;52.328;13.070;2022-09-09T03:31:02;6.57;;;3.60;;
12814;SDS011;6472;52.328;13.070;2022-09-09T03:33:31;4.53;;;3.30;;
12814;SDS011;6472;52.328;13.070;2022-09-09T03:36:01;5.30;;;3.97;;
12814;SDS011;6472;52.328;13.070;2022-09-09T03:38:30;4.90;;;4.20;;
12814;SDS011;6472;52.328;13.070;2022-09-09T03:40:59;5.40;;;3.87;;
12814;SDS011;6472;52.328;13.070;2022-09-09T03:43:30;4.07;;;3.33;;
12814;SDS011;6472;52.328;13.070;2022-09-09T03:45:58;4.47;;;3.73;;
12814;SDS011;6472;52.328;13.070;2022-09-09T03:48:27;4.57;;;3.37;;
12814;SDS011;6472;52.328;13.070;2022-09-09T03:50:55;5.17;;;3.67;;
12814;SDS011;6472;52.328;13.070;2022-09-09T03:53:25;4.23;;;3.10;;
12814;SDS011;6472;52.328;13.070;2022-09-09T03:55:54;5.20;;;3.20;;
12814;SDS011;6472;52.328;13.070;2022-09-09T03:58:26;4.73;;;3.47;;
12814;SDS011;6472;52.328;13.070;2022-09-09T04:00:56;5.30;;;4.23;;
12814;SDS011;6472;52.328;13.070;2022-09-09T04:03:25;5.57;;;4.00;;
12814;SDS011;6472;52.328;13.070;2022-09-09T04:05:54;7.57;;;3.73;;
12814;SDS011;6472;52.328;13.070;2022-09-09T04:08:23;3.97;;;3.23;;
12814;SDS011;6472;52.328;13.070;2022-09-09T04:10:54;3.73;;;3.30;;
12814;SDS011;6472;52.328;13.070;2022-09-09T04:13:24;3.80;;;3.20;;
12814;SDS011;6472;52.328;13.070;2022-09-09T04:15:53;5.57;;;3.60;;
12814;SDS011;6472;52.328;13.070;2022-09-09T04:18:22;5.10;;;3.90;;
12814;SDS011;6472;52.328;13.070;2022-09-09T04:20:51;5.60;;;4.20;;
12814;SDS011;6472;52.328;13.070;2022-09-09T04:23:19;4.53;;;3.50;;
12814;SDS011;6472;52.328;13.070;2022-09-09T04:25:48;3.00;;;2.70;;
12814;SDS011;6472;52.328;13.070;2022-09-09T04:28:19;3.63;;;3.10;;
12814;SDS011;6472;52.328;13.070;2022-09-09T04:30:48;5.10;;;3.90;;
12814;SDS011;6472;52.328;13.070;2022-09-09T04:33:16;5.43;;;3.60;;
12814;SDS011;6472;52.328;13.070;2022-09-09T04:35:44;4.83;;;4.07;;
12814;SDS011;6472;52.328;13.070;2022-09-09T04:38:14;5.43;;;3.70;;
12814;SDS011;6472;52.328;13.070;2022-09-09T04:40:43;5.60;;;2.90;;
12814;SDS011;6472;52.328;13.070;2022-09-09T04:43:11;4.27;;;3.13;;
12814;SDS011;6472;52.328;13.070;2022-09-09T04:45:42;9.03;;;3.53;;
12814;SDS011;6472;52.328;13.070;2022-09-09T04:48:10;4.47;;;3.50;;
12814;SDS011;6472;52.328;13.070;2022-09-09T04:50:38;4.33;;;3.73;;
12814;SDS011;6472;52.328;13.070;2022-09-09T04:53:07;3.70;;;3.33;;
12814;SDS011;6472;52.328;13.070;2022-09-09T04:55:35;3.57;;;2.97;;
12814;SDS011;6472;52.328;13.070;2022-09-09T04:58:04;4.67;;;2.97;;
12814;SDS011;6472;52.328;13.070;2022-09-09T05:00:32;4.60;;;3.40;;
12814;SDS011;6472;52.328;13.070;2022-09-09T05:03:03;4.20;;;3.23;;
12814;SDS011;6472;52.328;13.070;2022-09-09T05:05:33;7.23;;;3.57;;
12814;SDS011;6472;52.328;13.070;2022-09-09T05:08:01;6.07;;;3.77;;
12814;SDS011;6472;52.328;13.070;2022-09-09T05:10:30;4.70;;;3.47;;
12814;SDS011;6472;52.328;13.070;2022-09-09T05:12:59;6.20;;;3.77;;
12814;SDS011;6472;52.328;13.070;2022-09-09T05:15:27;3.93;;;3.47;;
12814;SDS011;6472;52.328;13.070;2022-09-09T05:17:56;5.30;;;3.57;;
12814;SDS011;6472;52.328;13.070;2022-09-09T05:20:27;5.23;;;3.00;;
12814;SDS011;6472;52.328;13.070;2022-09-09T05:22:55;5.10;;;3.40;;
12814;SDS011;6472;52.328;13.070;2022-09-09T05:25:24;4.70;;;3.30;;
12814;SDS011;6472;52.328;13.070;2022-09-09T05:27:52;4.90;;;3.67;;
12814;SDS011;6472;52.328;13.070;2022-09-09T05:30:21;4.40;;;3.73;;
12814;SDS011;6472;52.328;13.070;2022-09-09T05:32:49;3.63;;;3.03;;
12814;SDS011;6472;52.328;13.070;2022-09-09T05:35:17;4.97;;;3.67;;
12814;SDS011;6472;52.328;13.070;2022-09-09T05:37:47;4.47;;;3.47;;
12814;SDS011;6472;52.328;13.070;2022-09-09T05:40:15;4.27;;;3.67;;
12814;SDS011;6472;52.328;13.070;2022-09-09T05:42:43;4.00;;;3.43;;
12814;SDS011;6472;52.328;13.070;2022-09-09T05:45:11;4.70;;;3.67;;
12814;SDS011;6472;52.328;13.070;2022-09-09T05:47:39;3.67;;;3.37;;
12814;SDS011;6472;52.328;13.070;2022-09-09T05:50:07;4.97;;;3.57;;
12814;SDS011;6472;52.328;13.070;2022-09-09T05:52:36;4.23;;;3.17;;
12814;SDS011;6472;52.328;13.070;2022-09-09T05:55:06;4.80;;;3.60;;
12814;SDS011;6472;52.328;13.070;2022-09-09T05:57:35;4.63;;;3.70;;
12814;SDS011;6472;52.328;13.070;2022-09-09T06:00:03;4.10;;;3.13;;
12814;SDS011;6472;52.328;13.070;2022-09-09T06:02:32;3.10;;;2.80;;
12814;SDS011;6472;52.328;13.070;2022-09-09T06:05:00;5.87;;;3.83;;
12814;SDS011;6472;52.328;13.070;2022-09-09T06:07:28;4.27;;;3.40;;
12814;SDS011;6472;52.328;13.070;2022-09-09T06:09:56;4.97;;;3.70;;
12814;SDS011;6472;52.328;13.070;2022-09-09T06:12:26;2.77;;;2.50;;
12814;SDS011;6472;52.328;13.070;2022-09-09T06:14:54;5.23;;;3.17;;
12814;SDS011;6472;52.328;13.070;2022-09-09T06:17:22;11.70;;;3.73;;
12814;SDS011;6472;52.328;13.070;2022-09-09T06:19:50;3.17;;;2.87;;
12814;SDS011;6472;52.328;13.070;2022-09-09T06:22:19;2.83;;;2.63;;
12814;SDS011;6472;52.328;13.070;2022-09-09T06:24:47;4.07;;;3.20;;
12814;SDS011;6472;52.328;13.070;2022-09-09T06:27:16;3.83;;;2.63;;
12814;SDS011;6472;52.328;13.070;2022-09-09T06:29:45;4.17;;;3.03;;
12814;SDS011;6472;52.328;13.070;2022-09-09T06:32:15;3.27;;;2.87;;
12814;SDS011;6472;52.328;13.070;2022-09-09T06:34:44;5.10;;;3.03;;
12814;SDS011;6472;52.328;13.070;2022-09-09T06:37:13;4.23;;;3.80;;
12814;SDS011;6472;52.328;13.070;2022-09-09T06:39:41;6.67;;;3.10;;
12814;SDS011;6472;52.328;13.070;2022-09-09T06:42:10;3.83;;;3.07;;
12814;SDS011;6472;52.328;13.070;2022-09-09T06:44:38;6.03;;;3.70;;
12814;SDS011;6472;52.328;13.070;2022-09-09T06:47:08;5.50;;;3.20;;
12814;SDS011;6472;52.328;13.070;2022-09-09T06:49:37;3.00;;;2.80;;
12814;SDS011;6472;52.328;13.070;2022-09-09T06:52:05;5.10;;;2.77;;
12814;SDS011;6472;52.328;13.070;2022-09-09T06:54:35;3.10;;;2.80;;
12814;SDS011;6472;52.328;13.070;2022-09-09T06:57:03;3.50;;;2.70;;
12814;SDS011;6472;52.328;13.070;2022-09-09T06:59:53;4.90;;;2.40;;
12814;SDS011;6472;52.328;13.070;2022-09-09T07:02:22;3.90;;;2.77;;
12814;SDS011;6472;52.328;13.070;2022-09-09T07:04:51;6.90;;;3.40;;
12814;SDS011;6472;52.328;13.070;2022-09-09T07:07:18;4.73;;;2.73;;
12814;SDS011;6472;52.328;13.070;2022-09-09T07:09:46;2.87;;;2.57;;
12814;SDS011;6472;52.328;13.070;2022-09-09T07:12:15;6.87;;;2.63;;
12814;SDS011;6472;52.328;13.070;2022-09-09T07:14:43;2.87;;;2.17;;
12814;SDS011;6472;52.328;13.070;2022-09-09T07:17:11;5.63;;;2.50;;
12814;SDS011;6472;52.328;13.070;2022-09-09T07:19:40;2.47;;;2.13;;
12814;SDS011;6472;52.328;13.070;2022-09-09T07:22:09;2.47;;;2.28;;
12814;SDS011;6472;52.328;13.070;2022-09-09T07:24:37;2.25;;;2.05;;
12814;SDS011;6472;52.328;13.070;2022-09-09T07:27:05;5.55;;;2.40;;
12814;SDS011;6472;52.328;13.070;2022-09-09T07:29:33;1.92;;;1.83;;
12814;SDS011;6472;52.328;13.070;2022-09-09T07:32:01;4.82;;;2.30;;
12814;SDS011;6472;52.328;13.070;2022-09-09T07:34:30;2.40;;;2.20;;
12814;SDS011;6472;52.328;13.070;2022-09-09T07:36:59;2.70;;;2.03;;
12814;SDS011;6472;52.328;13.070;2022-09-09T07:39:27;2.78;;;2.22;;
12814;SDS011;6472;52.328;13.070;2022-09-09T07:41:55;5.18;;;2.05;;
12814;SDS011;6472;52.328;13.070;2022-09-09T07:44:24;4.07;;;1.98;;
12814;SDS011;6472;52.328;13.070;2022-09-09T07:46:53;2.35;;;2.00;;
12814;SDS011;6472;52.328;13.070;2022-09-09T07:49:21;2.67;;;1.98;;
12814;SDS011;6472;52.328;13.070;2022-09-09T07:51:57;2.30;;;2.10;;
12814;SDS011;6472;52.328;13.070;2022-09-09T07:54:27;2.55;;;2.08;;
12814;SDS011;6472;52.328;13.070;2022-09-09T07:56:55;3.10;;;1.92;;
12814;SDS011;6472;52.328;13.070;2022-09-09T07:59:23;2.00;;;1.90;;
12814;SDS011;6472;52.328;13.070;2022-09-09T08:01:51;1.67;;;1.58;;
12814;SDS011;6472;52.328;13.070;2022-09-09T08:04:21;2.78;;;1.30;;
12814;SDS011;6472;52.328;13.070;2022-09-09T08:06:52;4.82;;;2.03;;
12814;SDS011;6472;52.328;13.070;2022-09-09T08:09:22;3.15;;;1.95;;
12814;SDS011;6472;52.328;13.070;2022-09-09T08:11:53;1.80;;;1.70;;
12814;SDS011;6472;52.328;13.070;2022-09-09T08:14:22;1.85;;;1.73;;
12814;SDS011;6472;52.328;13.070;2022-09-09T08:16:51;2.80;;;2.10;;
12814;SDS011;6472;52.328;13.070;2022-09-09T08:19:20;1.83;;;1.70;;
12814;SDS011;6472;52.328;13.070;2022-09-09T08:21:48;3.08;;;1.70;;
12814;SDS011;6472;52.328;13.070;2022-09-09T08:24:17;1.80;;;1.52;;
12814;SDS011;6472;52.328;13.070;2022-09-09T08:26:47;1.83;;;1.70;;
12814;SDS011;6472;52.328;13.070;2022-09-09T08:29:16;2.70;;;1.92;;
12814;SDS011;6472;52.328;13.070;2022-09-09T08:31:46;1.58;;;1.48;;
12814;SDS011;6472;52.328;13.070;2022-09-09T08:34:17;3.55;;;1.70;;
12814;SDS011;6472;52.328;13.070;2022-09-09T08:36:47;2.90;;;1.88;;
12814;SDS011;6472;52.328;13.070;2022-09-09T08:39:17;4.90;;;2.17;;
12814;SDS011;6472;52.328;13.070;2022-09-09T08:44:39;3.15;;;1.65;;
12814;SDS011;6472;52.328;13.070;2022-09-09T08:47:18;2.47;;;1.85;;
12814;SDS011;6472;52.328;13.070;2022-09-09T08:50:05;2.83;;;1.83;;
12814;SDS011;6472;52.328;13.070;2022-09-09T08:52:44;1.98;;;1.88;;
12814;SDS011;6472;52.328;13.070;2022-09-09T08:55:21;2.67;;;1.83;;
12814;SDS011;6472;52.328;13.070;2022-09-09T08:57:55;2.38;;;2.17;;
12814;SDS011;6472;52.328;13.070;2022-09-09T09:00:28;2.53;;;2.33;;
12814;SDS011;6472;52.328;13.070;2022-09-09T09:03:05;2.08;;;1.83;;
12814;SDS011;6472;52.328;13.070;2022-09-09T09:05:41;2.90;;;1.98;;
12814;SDS011;6472;52.328;13.070;2022-09-09T09:08:17;3.50;;;1.55;;
12814;SDS011;6472;52.328;13.070;2022-09-09T09:10:56;2.70;;;1.60;;
12814;SDS011;6472;52.328;13.070;2022-09-09T09:13:30;2.42;;;1.40;;
12814;SDS011;6472;52.328;13.070;2022-09-09T09:16:11;1.83;;;1.55;;
12814;SDS011;6472;52.328;13.070;2022-09-09T09:18:45;2.53;;;1.52;;
12814;SDS011;6472;52.328;13.070;2022-09-09T09:21:14;2.20;;;1.40;;
12814;SDS011;6472;52.328;13.070;2022-09-09T09:23:48;1.00;;;1.00;;
12814;SDS011;6472;52.328;13.070;2022-09-09T09:26:23;3.10;;;1.58;;
12814;SDS011;6472;52.328;13.070;2022-09-09T09:28:57;1.95;;;1.42;;
12814;SDS011;6472;52.328;13.070;2022-09-09T09:31:26;1.90;;;1.00;;
12814;SDS011;6472;52.328;13.070;2022-09-09T09:33:55;2.65;;;1.05;;
12814;SDS011;6472;52.328;13.070;2022-09-09T09:36:25;1.95;;;1.27;;
12814;SDS011;6472;52.328;13.070;2022-09-09T09:39:02;1.10;;;0.98;;
12814;SDS011;6472;52.328;13.070;2022-09-09T09:41:51;2.05;;;1.25;;
12814;SDS011;6472;52.328;13.070;2022-09-09T09:44:25;1.63;;;1.02;;
12814;SDS011;6472;52.328;13.070;2022-09-09T09:47:05;1.30;;;0.85;;
12814;SDS011;6472;52.328;13.070;2022-09-09T09:49:33;1.95;;;0.90;;
12814;SDS011;6472;52.328;13.070;2022-09-09T09:52:01;1.00;;;1.00;;
12814;SDS011;6472;52.328;13.070;2022-09-09T09:54:31;1.95;;;0.93;;
12814;SDS011;6472;52.328;13.070;2022-09-09T09:57:08;1.58;;;1.30;;
12814;SDS011;6472;52.328;13.070;2022-09-09T09:59:39;2.72;;;1.30;;
12814;SDS011;6472;52.328;13.070;2022-09-09T10:05:01;1.05;;;1.05;;
12814;SDS011;6472;52.328;13.070;2022-09-09T10:07:31;3.40;;;1.17;;
12814;SDS011;6472;52.328;13.070;2022-09-09T10:10:00;1.02;;;1.02;;
12814;SDS011;6472;52.328;13.070;2022-09-09T10:12:31;2.35;;;1.50;;
12814;SDS011;6472;52.328;13.070;2022-09-09T10:15:18;0.98;;;0.98;;
12814;SDS011;6472;52.328;13.070;2022-09-09T10:17:58;5.35;;;1.15;;
12814;SDS011;6472;52.328;13.070;2022-09-09T10:20:37;1.45;;;1.08;;
12814;SDS011;6472;52.328;13.070;2022-09-09T10:23:14;3.47;;;1.38;;
12814;SDS011;6472;52.328;13.070;2022-09-09T10:25:58;3.92;;;0.90;;
12814;SDS011;6472;52.328;13.070;2022-09-09T10:28:40;3.00;;;1.08;;
12814;SDS011;6472;52.328;13.070;2022-09-09T10:31:25;1.35;;;1.10;;
12814;SDS011;6472;52.328;13.070;2022-09-09T10:34:03;6.25;;;1.20;;
12814;SDS011;6472;52.328;13.070;2022-09-09T10:36:38;2.25;;;0.82;;
12814;SDS011;6472;52.328;13.070;2022-09-09T10:39:14;1.60;;;0.70;;
12814;SDS011;6472;52.328;13.070;2022-09-09T10:41:56;1.95;;;0.73;;
12814;SDS011;6472;52.328;13.070;2022-09-09T10:44:35;1.00;;;1.00;;
12814;SDS011;6472;52.328;13.070;2022-09-09T10:47:24;2.35;;;0.90;;
12814;SDS011;6472;52.328;13.070;2022-09-09T10:50:16;1.10;;;1.10;;
12814;SDS011;6472;52.328;13.070;2022-09-09T10:53:18;1.10;;;0.70;;
12814;SDS011;6472;52.328;13.070;2022-09-09T10:55:56;2.28;;;1.10;;
12814;SDS011;6472;52.328;13.070;2022-09-09T10:58:28;0.80;;;0.80;;
12814;SDS011;6472;52.328;13.070;2022-09-09T11:01:06;1.95;;;1.10;;
12814;SDS011;6472;52.328;13.070;2022-09-09T11:03:43;1.05;;;0.95;;
12814;SDS011;6472;52.328;13.070;2022-09-09T11:06:20;2.78;;;0.90;;
12814;SDS011;6472;52.328;13.070;2022-09-09T11:08:51;1.20;;;1.00;;
12814;SDS011;6472;52.328;13.070;2022-09-09T11:11:25;1.60;;;1.00;;
12814;SDS011;6472;52.328;13.070;2022-09-09T11:13:57;0.80;;;0.80;;
12814;SDS011;6472;52.328;13.070;2022-09-09T11:16:29;1.52;;;0.80;;
12814;SDS011;6472;52.328;13.070;2022-09-09T11:19:03;0.80;;;0.80;;
12814;SDS011;6472;52.328;13.070;2022-09-09T11:21:40;2.20;;;0.90;;
12814;SDS011;6472;52.328;13.070;2022-09-09T11:24:13;0.50;;;0.50;;
12814;SDS011;6472;52.328;13.070;2022-09-09T11:26:50;0.50;;;0.50;;
12814;SDS011;6472;52.328;13.070;2022-09-09T11:29:33;0.70;;;0.70;;
12814;SDS011;6472;52.328;13.070;2022-09-09T11:35:11;1.08;;;0.70;;
12814;SDS011;6472;52.328;13.070;2022-09-09T11:38:00;2.45;;;0.60;;
12814;SDS011;6472;52.328;13.070;2022-09-09T11:40:42;1.48;;;0.70;;
12814;SDS011;6472;52.328;13.070;2022-09-09T11:43:11;1.30;;;1.10;;
12814;SDS011;6472;52.328;13.070;2022-09-09T11:45:41;1.35;;;0.65;;
12814;SDS011;6472;52.328;13.070;2022-09-09T11:48:25;2.72;;;0.75;;
12814;SDS011;6472;52.328;13.070;2022-09-09T11:51:01;0.85;;;0.80;;
12814;SDS011;6472;52.328;13.070;2022-09-09T11:53:31;1.02;;;0.73;;
12814;SDS011;6472;52.328;13.070;2022-09-09T11:56:09;0.60;;;0.55;;
12814;SDS011;6472;52.328;13.070;2022-09-09T11:58:40;0.60;;;0.60;;
12814;SDS011;6472;52.328;13.070;2022-09-09T12:04:16;1.20;;;1.02;;
12814;SDS011;6472;52.328;13.070;2022-09-09T12:07:02;0.50;;;0.50;;
12814;SDS011;6472;52.328;13.070;2022-09-09T12:09:36;1.23;;;1.13;;
12814;SDS011;6472;52.328;13.070;2022-09-09T12:12:24;1.08;;;0.85;;
12814;SDS011;6472;52.328;13.070;2022-09-09T12:14:56;0.68;;;0.52;;
12814;SDS011;6472;52.328;13.070;2022-09-09T12:17:29;1.75;;;0.70;;
12814;SDS011;6472;52.328;13.070;2022-09-09T12:20:00;2.67;;;1.00;;
12814;SDS011;6472;52.328;13.070;2022-09-09T12:22:35;0.95;;;0.75;;
12814;SDS011;6472;52.328;13.070;2022-09-09T12:25:15;1.85;;;0.85;;
12814;SDS011;6472;52.328;13.070;2022-09-09T12:27:52;0.82;;;0.60;;
12814;SDS011;6472;52.328;13.070;2022-09-09T12:30:29;1.15;;;0.70;;
12814;SDS011;6472;52.328;13.070;2022-09-09T12:33:06;1.35;;;0.85;;
12814;SDS011;6472;52.328;13.070;2022-09-09T12:35:39;0.60;;;0.60;;
12814;SDS011;6472;52.328;13.070;2022-09-09T12:38:11;1.48;;;0.60;;
12814;SDS011;6472;52.328;13.070;2022-09-09T12:40:42;2.20;;;0.93;;
12814;SDS011;6472;52.328;13.070;2022-09-09T12:43:21;0.55;;;0.55;;
12814;SDS011;6472;52.328;13.070;2022-09-09T12:45:50;1.60;;;0.70;;
12814;SDS011;6472;52.328;13.070;2022-09-09T12:48:26;1.77;;;1.00;;
12814;SDS011;6472;52.328;13.070;2022-09-09T12:50:58;0.73;;;0.50;;
12814;SDS011;6472;52.328;13.070;2022-09-09T12:53:28;0.98;;;0.98;;
12814;SDS011;6472;52.328;13.070;2022-09-09T12:55:59;0.73;;;0.68;;
12814;SDS011;6472;52.328;13.070;2022-09-09T12:58:30;1.58;;;0.63;;
12814;SDS011;6472;52.328;13.070;2022-09-09T13:01:00;3.92;;;1.00;;
12814;SDS011;6472;52.328;13.070;2022-09-09T13:03:31;1.02;;;0.88;;
12814;SDS011;6472;52.328;13.070;2022-09-09T13:06:10;1.95;;;0.50;;
12814;SDS011;6472;52.328;13.070;2022-09-09T13:08:42;4.32;;;1.08;;
12814;SDS011;6472;52.328;13.070;2022-09-09T13:11:10;0.70;;;0.70;;
12814;SDS011;6472;52.328;13.070;2022-09-09T13:13:43;0.60;;;0.60;;
12814;SDS011;6472;52.328;13.070;2022-09-09T13:16:19;0.70;;;0.70;;
12814;SDS011;6472;52.328;13.070;2022-09-09T13:18:49;0.68;;;0.57;;
12814;SDS011;6472;52.328;13.070;2022-09-09T13:21:18;1.08;;;0.70;;
12814;SDS011;6472;52.328;13.070;2022-09-09T13:23:50;2.72;;;1.02;;
12814;SDS011;6472;52.328;13.070;2022-09-09T13:26:22;2.30;;;1.00;;
12814;SDS011;6472;52.328;13.070;2022-09-09T13:28:52;1.65;;;0.70;;
12814;SDS011;6472;52.328;13.070;2022-09-09T13:31:22;0.80;;;0.80;;
12814;SDS011;6472;52.328;13.070;2022-09-09T13:33:53;2.70;;;0.73;;
12814;SDS011;6472;52.328;13.070;2022-09-09T13:36:27;4.00;;;0.80;;
12814;SDS011;6472;52.328;13.070;2022-09-09T13:38:59;3.40;;;1.15;;
12814;SDS011;6472;52.328;13.070;2022-09-09T13:41:31;3.30;;;1.33;;
12814;SDS011;6472;52.328;13.070;2022-09-09T13:44:01;2.03;;;0.80;;
12814;SDS011;6472;52.328;13.070;2022-09-09T13:46:31;0.70;;;0.70;;
12814;SDS011;6472;52.328;13.070;2022-09-09T13:49:01;1.40;;;0.57;;
12814;SDS011;6472;52.328;13.070;2022-09-09T13:51:46;0.68;;;0.68;;
12814;SDS011;6472;52.328;13.070;2022-09-09T13:54:18;1.15;;;0.60;;
12814;SDS011;6472;52.328;13.070;2022-09-09T13:56:47;0.65;;;0.65;;
12814;SDS011;6472;52.328;13.070;2022-09-09T13:59:16;3.13;;;0.90;;
12814;SDS011;6472;52.328;13.070;2022-09-09T14:01:47;0.98;;;0.70;;
12814;SDS011;6472;52.328;13.070;2022-09-09T14:04:18;2.15;;;0.95;;
12814;SDS011;6472;52.328;13.070;2022-09-09T14:06:47;1.40;;;0.60;;
12814;SDS011;6472;52.328;13.070;2022-09-09T14:09:17;3.65;;;1.00;;
12814;SDS011;6472;52.328;13.070;2022-09-09T14:11:45;3.50;;;0.82;;
12814;SDS011;6472;52.328;13.070;2022-09-09T14:14:13;1.98;;;0.70;;
12814;SDS011;6472;52.328;13.070;2022-09-09T14:16:41;0.60;;;0.60;;
12814;SDS011;6472;52.328;13.070;2022-09-09T14:19:09;1.63;;;0.55;;
12814;SDS011;6472;52.328;13.070;2022-09-09T14:21:38;0.57;;;0.57;;
12814;SDS011;6472;52.328;13.070;2022-09-09T14:24:06;0.63;;;0.63;;
12814;SDS011;6472;52.328;13.070;2022-09-09T14:26:35;0.57;;;0.52;;
12814;SDS011;6472;52.328;13.070;2022-09-09T14:29:03;0.65;;;0.65;;
12814;SDS011;6472;52.328;13.070;2022-09-09T14:31:31;2.38;;;0.95;;
12814;SDS011;6472;52.328;13.070;2022-09-09T14:33:59;1.42;;;0.70;;
12814;SDS011;6472;52.328;13.070;2022-09-09T14:36:27;1.77;;;1.20;;
12814;SDS011;6472;52.328;13.070;2022-09-09T14:38:56;3.03;;;0.82;;
12814;SDS011;6472;52.328;13.070;2022-09-09T14:41:24;2.22;;;0.80;;
12814;SDS011;6472;52.328;13.070;2022-09-09T14:43:54;0.73;;;0.63;;
12814;SDS011;6472;52.328;13.070;2022-09-09T14:46:22;1.13;;;0.52;;
12814;SDS011;6472;52.328;13.070;2022-09-09T14:48:50;1.55;;;0.70;;
12814;SDS011;6472;52.328;13.070;2022-09-09T14:51:20;0.70;;;0.70;;
12814;SDS011;6472;52.328;13.070;2022-09-09T14:53:50;1.38;;;0.60;;
12814;SDS011;6472;52.328;13.070;2022-09-09T14:56:21;2.58;;;0.70;;
12814;SDS011;6472;52.328;13.070;2022-09-09T14:58:50;2.50;;;0.70;;
12814;SDS011;6472;52.328;13.070;2022-09-09T15:01:21;0.50;;;0.50;;
12814;SDS011;6472;52.328;13.070;2022-09-09T15:03:50;4.22;;;1.15;;
12814;SDS011;6472;52.328;13.070;2022-09-09T15:06:20;0.65;;;0.65;;
12814;SDS011;6472;52.328;13.070;2022-09-09T15:08:49;0.85;;;0.70;;
12814;SDS011;6472;52.328;13.070;2022-09-09T15:11:19;0.85;;;0.80;;
12814;SDS011;6472;52.328;13.070;2022-09-09T15:13:51;2.75;;;0.77;;
12814;SDS011;6472;52.328;13.070;2022-09-09T15:16:23;1.00;;;1.00;;
12814;SDS011;6472;52.328;13.070;2022-09-09T15:18:54;0.68;;;0.68;;
12814;SDS011;6472;52.328;13.070;2022-09-09T15:21:24;2.55;;;1.05;;
12814;SDS011;6472;52.328;13.070;2022-09-09T15:23:54;0.63;;;0.60;;
12814;SDS011;6472;52.328;13.070;2022-09-09T15:26:23;1.08;;;0.75;;
12814;SDS011;6472;52.328;13.070;2022-09-09T15:28:52;1.63;;;0.70;;
12814;SDS011;6472;52.328;13.070;2022-09-09T15:31:22;1.35;;;0.65;;